createdAt,value
2023-03-12T06:56:13.971Z,4.70
2023-03-12T06:58:42.451Z,4.80
2023-03-12T07:01:10.634Z,4.80
2023-03-12T07:03:38.520Z,4.90
2023-03-12T07:06:13.260Z,4.80
2023-03-12T07:08:41.111Z,4.90
2023-03-12T07:11:08.974Z,4.90
2023-03-12T07:13:38.438Z,4.90
2023-03-12T07:16:07.708Z,5.40
2023-03-12T07:18:35.993Z,5.10
2023-03-12T07:21:04.040Z,5.20
2023-03-12T07:23:31.961Z,5.20
2023-03-12T07:25:59.767Z,5.20
2023-03-12T07:28:27.631Z,5.30
2023-03-12T07:31:01.531Z,5.30
2023-03-12T07:33:29.607Z,5.30
2023-03-12T07:35:57.583Z,5.30
2023-03-12T07:38:25.721Z,5.30
2023-03-12T07:40:53.653Z,5.40
2023-03-12T07:43:21.992Z,5.40
2023-03-12T07:45:50.301Z,5.50
2023-03-12T07:48:20.197Z,5.60
2023-03-12T15:15:37.106Z,8.30
2023-03-12T15:18:07.725Z,8.30
2023-03-12T15:20:36.827Z,8.30
2023-03-12T15:23:05.573Z,8.30
2023-03-12T15:25:35.231Z,8.30
2023-03-12T15:28:09.308Z,8.40
2023-03-12T15:30:40.544Z,8.40
2023-03-12T15:33:12.502Z,8.80
2023-03-12T15:35:43.219Z,9.00
2023-03-12T15:38:16.489Z,9.10
2023-03-12T15:40:50.432Z,9.00
2023-03-12T15:43:21.016Z,8.90
2023-03-12T15:45:59.744Z,8.70
2023-03-12T15:48:30.698Z,8.70
2023-03-12T15:50:58.715Z,8.60
2023-03-12T15:53:30.957Z,8.50
2023-03-12T15:56:02.085Z,8.50
2023-03-12T15:58:32.562Z,8.40
2023-03-12T16:01:13.262Z,8.30
2023-03-12T16:03:42.223Z,8.30
2023-03-12T16:06:14.084Z,8.30
2023-03-12T16:08:46.826Z,8.40
2023-03-12T16:11:18.410Z,8.30
2023-03-12T16:13:51.658Z,8.30
2023-03-12T16:16:23.090Z,8.30
2023-03-12T16:18:58.341Z,8.30
2023-03-12T16:21:26.515Z,8.20
2023-03-12T16:23:54.476Z,8.20
2023-03-12T16:26:26.492Z,8.20
2023-03-12T16:28:54.417Z,8.20
2023-03-12T16:31:23.669Z,8.20
2023-03-12T16:33:54.021Z,8.20
2023-03-12T16:36:21.946Z,8.20
2023-03-12T16:38:49.759Z,8.20
2023-03-12T16:41:19.114Z,8.20
2023-03-12T16:43:50.788Z,8.20
2023-03-12T16:46:21.634Z,8.20
2023-03-12T16:48:53.934Z,8.20
2023-03-12T21:02:43.275Z,7.90
2023-03-12T21:05:13.613Z,8.00
2023-03-12T21:07:41.834Z,8.00
2023-03-12T21:10:11.143Z,9.00
2023-03-12T21:12:39.690Z,8.00
2023-03-12T21:15:09.493Z,8.10
2023-03-12T21:17:38.763Z,8.10
2023-03-12T21:20:10.426Z,8.10
2023-03-12T21:22:38.725Z,8.10
2023-03-12T21:25:07.690Z,8.10
2023-03-12T21:27:48.053Z,8.10
2023-03-12T21:30:18.057Z,8.20
2023-03-12T21:32:46.078Z,8.10
2023-03-12T21:35:15.296Z,8.10
2023-03-12T21:37:43.110Z,8.10
2023-03-12T21:40:12.538Z,8.10
2023-03-12T21:42:40.741Z,8.10
2023-03-12T21:45:09.994Z,8.10
2023-03-12T21:47:38.068Z,8.10
2023-03-12T21:50:06.839Z,8.00
2023-03-12T21:52:42.962Z,8.10
2023-03-12T21:55:11.995Z,8.10
2023-03-12T21:57:39.876Z,8.10
2023-03-12T22:00:12.468Z,8.10
2023-03-12T22:02:40.642Z,8.10
2023-03-12T22:05:09.396Z,8.10
2023-03-12T22:07:38.770Z,8.10
